createdAt,value
2023-10-06T00:02:21.379Z,2.80
2023-10-06T00:04:48.587Z,2.30
2023-10-06T00:07:15.903Z,2.20
2023-10-06T00:09:45.403Z,2.50
2023-10-06T00:12:14.073Z,2.80
2023-10-06T00:14:41.544Z,2.80
2023-10-06T00:17:22.613Z,2.10
2023-10-06T00:20:00.425Z,2.90
2023-10-06T00:22:27.339Z,2.60
2023-10-06T00:24:59.745Z,2.70
2023-10-06T00:27:30.270Z,2.30
2023-10-06T00:29:57.098Z,2.40
2023-10-06T00:32:28.527Z,2.40
2023-10-06T00:35:15.569Z,2.30
2023-10-06T00:37:43.970Z,2.30
2023-10-06T00:40:20.028Z,2.30
2023-10-06T00:42:57.303Z,2.40
2023-10-06T00:45:26.827Z,2.40
2023-10-06T00:47:54.251Z,2.60
2023-10-06T00:50:25.311Z,2.50
2023-10-06T00:52:52.843Z,2.00
2023-10-06T00:55:20.834Z,2.70
2023-10-06T00:57:54.064Z,2.50
2023-10-06T01:00:21.387Z,2.60
2023-10-06T01:02:50.581Z,2.50
2023-10-06T01:05:22.282Z,2.10
2023-10-06T01:07:50.321Z,2.20
2023-10-06T01:10:19.219Z,2.20
2023-10-06T01:12:51.367Z,2.30
2023-10-06T01:15:20.262Z,2.20
2023-10-06T01:17:48.220Z,2.40
2023-10-06T01:20:34.431Z,2.60
2023-10-06T01:23:03.768Z,2.30
2023-10-06T01:25:35.602Z,2.30
2023-10-06T01:28:05.700Z,2.40
2023-10-06T01:30:32.427Z,2.20
2023-10-06T01:32:59.220Z,2.50
2023-10-06T01:35:27.358Z,2.40
2023-10-06T01:38:01.247Z,2.30
2023-10-06T01:40:28.835Z,2.20
2023-10-06T01:42:56.584Z,2.80
2023-10-06T01:45:23.434Z,2.50
2023-10-06T01:48:14.964Z,2.50
2023-10-06T01:50:42.119Z,2.30
2023-10-06T01:53:10.899Z,2.60
2023-10-06T01:55:39.102Z,2.30
2023-10-06T01:58:08.286Z,2.20
2023-10-06T02:00:36.745Z,2.10
2023-10-06T02:03:26.781Z,2.50
2023-10-06T02:05:56.348Z,2.10
2023-10-06T02:08:24.309Z,2.20
2023-10-06T02:10:51.872Z,2.30
2023-10-06T02:13:24.644Z,2.40
2023-10-06T02:15:59.382Z,2.50
2023-10-06T02:18:36.947Z,2.30
2023-10-06T02:21:15.152Z,2.40
2023-10-06T02:23:42.861Z,2.30
2023-10-06T02:26:12.940Z,1.90
2023-10-06T02:28:44.176Z,2.40
2023-10-06T02:31:12.453Z,2.20
2023-10-06T02:33:40.649Z,1.70
2023-10-06T02:36:22.119Z,2.30
2023-10-06T02:38:50.799Z,2.30
2023-10-06T02:41:24.201Z,2.30
2023-10-06T02:46:26.356Z,2.20
2023-10-06T02:48:53.414Z,2.30
2023-10-06T02:51:30.259Z,2.10
2023-10-06T02:54:09.973Z,2.50
2023-10-06T02:56:39.174Z,2.20
2023-10-06T02:59:22.162Z,2.40
2023-10-06T03:02:16.700Z,2.20
2023-10-06T03:04:55.405Z,2.40
2023-10-06T03:07:23.050Z,2.20
2023-10-06T03:09:49.786Z,2.20
2023-10-06T03:12:27.213Z,2.00
2023-10-06T03:14:55.581Z,2.20
2023-10-06T03:17:23.386Z,2.10
2023-10-06T03:20:11.409Z,2.30
2023-10-06T03:22:39.513Z,2.20
2023-10-06T03:25:16.124Z,2.10
2023-10-06T03:27:43.534Z,2.10
2023-10-06T03:30:19.352Z,2.40
2023-10-06T03:32:50.012Z,2.00
2023-10-06T03:35:24.414Z,2.30
2023-10-06T03:37:52.942Z,2.10
2023-10-06T03:40:36.814Z,2.00
2023-10-06T03:43:05.549Z,2.30
2023-10-06T03:45:33.167Z,2.10
2023-10-06T03:48:13.635Z,2.10
2023-10-06T03:50:44.753Z,2.30
2023-10-06T03:53:13.986Z,2.40
2023-10-06T03:55:43.574Z,2.10
2023-10-06T03:58:11.725Z,2.30
2023-10-06T04:00:40.629Z,2.00
2023-10-06T04:03:14.721Z,2.00
2023-10-06T04:05:45.004Z,2.30
2023-10-06T04:08:16.814Z,2.20
2023-10-06T04:10:45.385Z,2.00
2023-10-06T04:13:12.920Z,2.10
2023-10-06T04:15:44.330Z,1.80
2023-10-06T04:18:11.516Z,2.20
2023-10-06T04:20:41.948Z,1.90
2023-10-06T04:23:08.717Z,2.50
2023-10-06T04:25:38.619Z,2.10
2023-10-06T04:28:11.754Z,2.10
2023-10-06T04:30:39.522Z,2.40
2023-10-06T04:33:06.381Z,1.90
2023-10-06T04:35:35.883Z,1.90
2023-10-06T04:38:06.609Z,2.20
2023-10-06T04:40:33.380Z,2.10
2023-10-06T04:43:00.364Z,2.20
2023-10-06T04:45:28.256Z,2.20
2023-10-06T04:47:56.448Z,2.10
2023-10-06T04:50:23.563Z,1.90
2023-10-06T04:52:50.324Z,1.90
2023-10-06T04:55:17.382Z,1.80
2023-10-06T04:57:44.158Z,1.70
2023-10-06T05:00:15.711Z,1.80
2023-10-06T05:02:47.265Z,2.00
2023-10-06T05:05:17.007Z,1.80
2023-10-06T05:07:46.436Z,1.90
2023-10-06T05:10:13.585Z,2.30
2023-10-06T05:12:43.113Z,2.40
2023-10-06T05:15:15.094Z,2.30
2023-10-06T05:17:42.170Z,2.30
2023-10-06T05:20:19.976Z,3.50
2023-10-06T05:22:49.704Z,4.30
2023-10-06T05:25:20.375Z,4.20
2023-10-06T05:27:47.967Z,4.30
2023-10-06T05:30:15.565Z,4.50
2023-10-06T05:32:43.091Z,5.10
2023-10-06T05:35:14.374Z,5.50
2023-10-06T05:37:43.505Z,5.40
2023-10-06T05:40:16.613Z,5.70
2023-10-06T05:42:44.244Z,6.70
2023-10-06T05:45:18.902Z,6.40
2023-10-06T05:47:47.275Z,6.40
2023-10-06T05:50:19.366Z,7.60
2023-10-06T05:52:52.494Z,6.00
2023-10-06T05:55:20.310Z,6.10
2023-10-06T05:57:56.413Z,6.00
2023-10-06T06:00:27.721Z,5.50
2023-10-06T06:02:58.847Z,6.30
2023-10-06T06:05:31.356Z,6.10
2023-10-06T06:07:59.916Z,5.50
2023-10-06T06:10:29.751Z,5.80
2023-10-06T06:12:57.529Z,5.80
2023-10-06T06:15:27.014Z,5.70
2023-10-06T06:17:54.589Z,6.10
2023-10-06T06:20:24.812Z,5.50
2023-10-06T06:22:56.003Z,5.30
2023-10-06T06:25:29.075Z,6.10
2023-10-06T06:27:59.784Z,5.70
2023-10-06T06:30:27.360Z,5.70
2023-10-06T06:32:55.337Z,5.40
2023-10-06T06:35:23.901Z,5.60
2023-10-06T06:38:00.409Z,5.10
2023-10-06T06:40:29.437Z,5.30
2023-10-06T06:42:56.980Z,5.30
2023-10-06T06:45:29.367Z,5.10
2023-10-06T06:47:56.593Z,5.30
2023-10-06T06:50:23.636Z,5.30
2023-10-06T06:52:55.671Z,5.10
2023-10-06T06:55:23.930Z,5.40
2023-10-06T06:57:56.753Z,5.30
2023-10-06T07:02:56.758Z,5.60
2023-10-06T07:05:23.994Z,5.90
2023-10-06T07:07:51.919Z,5.80
2023-10-06T07:10:21.649Z,6.30
2023-10-06T07:12:49.222Z,5.30
2023-10-06T07:15:17.265Z,5.40
2023-10-06T07:17:54.734Z,5.70
2023-10-06T07:20:30.642Z,6.30
2023-10-06T07:23:01.087Z,5.90
2023-10-06T07:25:29.106Z,5.60
2023-10-06T07:27:58.774Z,6.50
2023-10-06T07:30:28.284Z,6.40
2023-10-06T07:32:56.019Z,5.70
2023-10-06T07:35:31.693Z,6.00
2023-10-06T07:37:59.016Z,5.40
2023-10-06T07:40:28.190Z,5.70
2023-10-06T07:42:59.401Z,5.70
2023-10-06T07:45:27.415Z,5.30
2023-10-06T07:47:55.438Z,6.00
2023-10-06T07:50:30.663Z,5.90
2023-10-06T07:52:57.952Z,5.90
2023-10-06T07:55:24.762Z,6.00
2023-10-06T07:57:51.706Z,6.50
2023-10-06T08:00:30.655Z,6.20
2023-10-06T08:03:00.070Z,7.40
2023-10-06T08:05:30.615Z,5.90
2023-10-06T08:08:00.053Z,6.30
2023-10-06T08:10:30.605Z,6.40
2023-10-06T08:13:01.338Z,5.60
2023-10-06T08:15:28.914Z,5.90
2023-10-06T08:17:56.657Z,5.70
2023-10-06T08:20:31.286Z,6.00
2023-10-06T08:22:58.995Z,6.30
2023-10-06T08:25:26.354Z,5.40
2023-10-06T08:27:54.090Z,5.50
2023-10-06T08:35:14.074Z,5.30
2023-10-06T08:37:57.124Z,5.40
2023-10-06T08:40:24.841Z,5.20
2023-10-06T08:43:00.621Z,5.60
2023-10-06T08:45:29.083Z,5.70
2023-10-06T08:48:03.963Z,5.40
2023-10-06T08:50:33.633Z,5.50
2023-10-06T08:53:02.369Z,5.90
2023-10-06T08:55:29.702Z,5.40
2023-10-06T08:58:00.294Z,5.60
2023-10-06T09:00:32.920Z,5.60
2023-10-06T09:03:10.183Z,5.10
2023-10-06T09:05:41.220Z,5.40
2023-10-06T09:08:15.338Z,5.30
2023-10-06T09:10:49.488Z,5.20
2023-10-06T09:13:18.468Z,5.10
2023-10-06T09:16:00.242Z,5.40
2023-10-06T09:18:32.669Z,5.10
2023-10-06T09:21:20.654Z,5.00
2023-10-06T09:23:49.768Z,5.20
2023-10-06T09:26:30.264Z,5.10
2023-10-06T09:28:59.994Z,4.90
2023-10-06T09:31:44.874Z,5.00
2023-10-06T09:34:12.450Z,5.30
2023-10-06T09:36:45.388Z,5.10
2023-10-06T09:39:25.600Z,5.10
2023-10-06T09:41:54.746Z,5.00
2023-10-06T09:44:23.569Z,5.20
2023-10-06T09:46:53.960Z,4.90
2023-10-06T09:49:22.190Z,5.30
2023-10-06T09:51:51.838Z,5.10
2023-10-06T09:54:20.965Z,4.90
2023-10-06T09:56:48.276Z,5.10
2023-10-06T09:59:16.495Z,5.00
2023-10-06T10:01:43.832Z,5.00
2023-10-06T10:04:12.265Z,5.00
2023-10-06T10:06:44.406Z,4.60
2023-10-06T10:09:17.737Z,4.90
2023-10-06T10:11:53.657Z,5.10
2023-10-06T10:14:49.961Z,4.80
2023-10-06T10:17:49.031Z,4.60
2023-10-06T10:20:17.661Z,4.90
2023-10-06T10:22:44.569Z,5.20
2023-10-06T10:25:24.861Z,4.60
2023-10-06T10:28:14.380Z,5.00
2023-10-06T10:30:58.076Z,4.30
2023-10-06T10:33:33.941Z,4.60
2023-10-06T10:36:20.303Z,4.20
2023-10-06T10:39:14.768Z,4.90
2023-10-06T10:41:41.559Z,5.00
2023-10-06T10:44:24.891Z,4.80
2023-10-06T10:46:53.854Z,4.90
2023-10-06T10:49:23.499Z,4.70
2023-10-06T10:52:07.654Z,4.80
2023-10-06T10:54:39.785Z,5.10
2023-10-06T10:57:14.648Z,5.50
2023-10-06T11:00:12.279Z,5.50
2023-10-06T11:03:01.913Z,5.60
2023-10-06T11:05:29.325Z,5.50
2023-10-06T11:08:04.005Z,5.70
2023-10-06T11:10:34.109Z,5.50
2023-10-06T11:13:19.159Z,5.50
2023-10-06T11:15:47.011Z,5.70
2023-10-06T11:18:13.893Z,5.40
2023-10-06T11:20:40.981Z,5.60
2023-10-06T11:23:07.780Z,5.60
2023-10-06T11:25:39.540Z,5.60
2023-10-06T11:28:10.584Z,4.70
2023-10-06T11:30:43.318Z,5.10
2023-10-06T11:33:12.434Z,4.80
2023-10-06T11:35:41.163Z,5.40
2023-10-06T11:38:12.856Z,5.20
2023-10-06T11:40:41.021Z,5.10
2023-10-06T11:43:16.145Z,5.30
2023-10-06T11:45:43.207Z,5.10
2023-10-06T11:48:30.654Z,5.40
2023-10-06T11:51:07.308Z,5.40
2023-10-06T11:53:35.883Z,5.30
2023-10-06T11:56:11.539Z,5.20
2023-10-06T11:58:41.271Z,5.40
2023-10-06T12:01:33.793Z,5.70
2023-10-06T12:04:05.324Z,5.20
2023-10-06T12:06:40.187Z,4.90
2023-10-06T12:09:14.575Z,5.40
2023-10-06T12:11:42.186Z,5.10
2023-10-06T12:14:11.207Z,5.30
2023-10-06T12:16:38.395Z,5.60
2023-10-06T12:19:06.485Z,5.30
2023-10-06T12:21:33.623Z,4.70
2023-10-06T12:24:00.345Z,5.70
2023-10-06T12:26:27.087Z,5.50
2023-10-06T12:28:54.807Z,5.00
2023-10-06T12:31:22.558Z,6.10
2023-10-06T12:33:55.705Z,5.70
2023-10-06T12:36:22.541Z,6.10
2023-10-06T12:38:49.295Z,5.60
2023-10-06T12:41:18.356Z,6.70
2023-10-06T12:43:48.043Z,6.10
2023-10-06T12:46:14.855Z,6.20
2023-10-06T12:48:41.596Z,6.30
2023-10-06T12:51:12.801Z,6.50
2023-10-06T12:53:41.218Z,6.60
2023-10-06T12:56:08.076Z,6.40
2023-10-06T12:58:34.949Z,6.80
2023-10-06T13:01:01.777Z,6.50
2023-10-06T13:03:30.009Z,6.30
2023-10-06T13:05:57.133Z,6.30
2023-10-06T13:08:25.436Z,5.80
2023-10-06T13:10:54.372Z,6.40
2023-10-06T13:13:21.237Z,6.40
2023-10-06T13:15:48.076Z,5.90
2023-10-06T13:18:17.779Z,5.80
2023-10-06T13:20:44.559Z,5.40
2023-10-06T13:23:11.364Z,6.10
2023-10-06T13:25:38.294Z,5.70
2023-10-06T13:28:11.149Z,5.80
2023-10-06T13:30:39.024Z,6.10
2023-10-06T13:33:05.884Z,5.90
2023-10-06T13:35:32.814Z,6.00
2023-10-06T13:37:59.543Z,6.00
2023-10-06T13:40:26.318Z,6.10
2023-10-06T13:42:53.566Z,5.80
2023-10-06T13:45:26.039Z,6.20
2023-10-06T13:47:54.501Z,5.70
2023-10-06T13:50:28.100Z,5.90
2023-10-06T13:55:24.977Z,5.30
2023-10-06T13:57:53.321Z,5.70
2023-10-06T14:00:41.106Z,5.50
2023-10-06T14:03:14.320Z,5.40
2023-10-06T14:05:43.954Z,5.20
2023-10-06T14:08:14.280Z,5.60
2023-10-06T14:10:41.966Z,5.80
2023-10-06T14:13:12.114Z,4.90
2023-10-06T14:16:04.941Z,5.70
2023-10-06T14:18:33.326Z,5.00
2023-10-06T14:21:06.495Z,5.20
2023-10-06T14:23:34.913Z,5.60
2023-10-06T14:26:06.148Z,5.30
2023-10-06T14:28:33.815Z,5.60
2023-10-06T14:31:18.998Z,5.70
2023-10-06T14:33:48.372Z,5.10
2023-10-06T14:36:15.050Z,5.10
2023-10-06T14:38:44.673Z,4.80
2023-10-06T14:41:35.082Z,5.70
2023-10-06T14:44:21.543Z,4.80
2023-10-06T14:46:51.158Z,5.20
2023-10-06T14:49:26.456Z,5.20
2023-10-06T14:51:56.770Z,5.10
2023-10-06T14:54:34.104Z,5.20
2023-10-06T14:57:03.874Z,4.80
2023-10-06T14:59:34.399Z,4.70
2023-10-06T15:02:10.293Z,4.70
2023-10-06T15:04:39.798Z,4.70
2023-10-06T15:07:06.910Z,4.70
2023-10-06T15:09:36.059Z,4.90
2023-10-06T15:12:04.117Z,4.80
2023-10-06T15:14:31.407Z,5.30
2023-10-06T15:17:00.172Z,4.80
2023-10-06T15:19:26.997Z,5.20
2023-10-06T15:21:55.439Z,4.90
2023-10-06T15:24:22.511Z,4.80
2023-10-06T15:26:50.674Z,5.10
2023-10-06T15:29:21.549Z,4.90
2023-10-06T15:31:50.325Z,4.60
2023-10-06T15:34:18.158Z,4.60
2023-10-06T15:36:45.422Z,4.40
2023-10-06T15:39:18.555Z,4.50
2023-10-06T15:41:49.773Z,4.50
2023-10-06T15:44:18.314Z,4.60
2023-10-06T15:46:46.441Z,4.90
2023-10-06T15:49:16.397Z,4.90
2023-10-06T15:51:47.450Z,4.90
2023-10-06T15:54:14.165Z,4.60
2023-10-06T15:56:41.110Z,4.60
2023-10-06T15:59:15.014Z,4.50
2023-10-06T16:01:43.681Z,4.50
2023-10-06T16:04:13.010Z,4.10
2023-10-06T16:06:42.246Z,4.30
2023-10-06T16:09:10.162Z,4.50
2023-10-06T16:11:40.688Z,4.40
2023-10-06T16:14:07.651Z,4.70
2023-10-06T16:16:35.452Z,4.40
2023-10-06T16:19:03.881Z,4.30
2023-10-06T16:21:32.608Z,4.50
2023-10-06T16:23:59.965Z,5.00
2023-10-06T16:26:30.514Z,4.20
2023-10-06T16:28:58.781Z,4.50
2023-10-06T16:31:26.854Z,4.60
2023-10-06T16:33:57.808Z,4.40
2023-10-06T16:36:24.849Z,4.40
2023-10-06T16:38:52.267Z,4.30
2023-10-06T16:41:22.066Z,4.30
2023-10-06T16:43:54.015Z,4.20
2023-10-06T16:46:21.032Z,4.60
2023-10-06T16:48:48.328Z,4.30
2023-10-06T16:51:15.146Z,4.80
2023-10-06T16:53:41.981Z,4.50
2023-10-06T16:56:09.049Z,4.30
2023-10-06T16:58:35.890Z,4.30
2023-10-06T17:01:08.346Z,4.20
2023-10-06T17:03:35.207Z,4.30
2023-10-06T17:06:04.551Z,4.40
2023-10-06T17:08:31.763Z,4.70
2023-10-06T17:11:11.590Z,3.90
2023-10-06T17:13:38.638Z,4.20
2023-10-06T17:16:09.745Z,4.20
2023-10-06T17:18:37.139Z,4.00
2023-10-06T17:21:07.446Z,4.60
2023-10-06T17:23:34.684Z,3.80
2023-10-06T17:26:02.392Z,4.60
2023-10-06T17:28:29.231Z,3.90
2023-10-06T17:30:56.161Z,4.00
2023-10-06T17:33:22.942Z,4.30
2023-10-06T17:35:49.759Z,4.20
2023-10-06T17:38:19.043Z,4.00
2023-10-06T17:40:46.610Z,4.00
2023-10-06T17:43:15.254Z,4.00
2023-10-06T17:45:42.272Z,4.50
2023-10-06T17:48:09.129Z,4.30
2023-10-06T17:50:36.067Z,4.00
2023-10-06T17:53:02.869Z,4.20
2023-10-06T17:55:32.182Z,3.90
2023-10-06T17:57:59.668Z,4.00
2023-10-06T18:00:28.104Z,4.40
2023-10-06T18:02:55.069Z,3.90
2023-10-06T18:05:23.422Z,3.90
2023-10-06T18:07:51.608Z,4.20
2023-10-06T18:10:18.983Z,4.20
2023-10-06T18:12:45.694Z,3.90
2023-10-06T18:15:12.472Z,3.90
2023-10-06T18:17:39.446Z,3.90
2023-10-06T18:20:09.210Z,3.90
2023-10-06T18:22:37.635Z,3.90
2023-10-06T18:25:06.528Z,4.10
2023-10-06T18:27:33.591Z,4.00
2023-10-06T18:30:00.347Z,4.00
2023-10-06T18:32:27.131Z,4.00
2023-10-06T18:34:53.951Z,4.00
2023-10-06T18:37:21.205Z,4.00
2023-10-06T18:39:50.492Z,3.90
2023-10-06T18:42:17.244Z,4.10
2023-10-06T18:44:43.946Z,3.80
2023-10-06T18:47:10.907Z,3.70
2023-10-06T18:49:37.738Z,3.80
2023-10-06T18:52:04.604Z,3.60
2023-10-06T18:54:31.486Z,3.70
2023-10-06T18:56:58.199Z,3.80
2023-10-06T18:59:24.943Z,3.60
2023-10-06T19:01:52.219Z,4.10
2023-10-06T19:04:19.112Z,3.70
2023-10-06T19:06:45.877Z,3.80
2023-10-06T19:09:15.580Z,3.50
2023-10-06T19:11:42.404Z,3.80
2023-10-06T19:14:10.871Z,3.60
2023-10-06T19:16:37.763Z,4.10
2023-10-06T19:19:04.735Z,3.70
2023-10-06T19:21:32.033Z,3.80
2023-10-06T19:24:02.082Z,3.70
2023-10-06T19:26:28.828Z,3.90
2023-10-06T19:28:55.882Z,3.70
2023-10-06T19:31:22.862Z,3.70
2023-10-06T19:33:51.262Z,4.00
2023-10-06T19:36:20.248Z,3.80
2023-10-06T19:38:48.381Z,3.80
2023-10-06T19:41:15.444Z,3.60
2023-10-06T19:43:43.100Z,3.90
2023-10-06T19:46:11.613Z,3.70
2023-10-06T19:48:39.842Z,3.80
2023-10-06T19:51:07.235Z,3.60
2023-10-06T19:53:35.199Z,3.50
2023-10-06T19:56:03.732Z,3.50
2023-10-06T19:58:31.367Z,3.60
2023-10-06T20:01:01.917Z,4.00
2023-10-06T20:03:28.756Z,3.70
2023-10-06T20:05:56.591Z,3.70
2023-10-06T20:08:23.469Z,3.50
2023-10-06T20:10:54.836Z,3.60
2023-10-06T20:13:24.501Z,3.50
2023-10-06T20:15:52.480Z,3.70
2023-10-06T20:18:20.269Z,3.50
2023-10-06T20:20:47.111Z,3.60
2023-10-06T20:23:13.937Z,3.30
2023-10-06T20:25:41.631Z,3.50
2023-10-06T20:28:09.833Z,3.50
2023-10-06T20:30:36.945Z,3.70
2023-10-06T20:33:03.975Z,3.50
2023-10-06T20:35:31.538Z,3.60
2023-10-06T20:37:59.052Z,3.10
2023-10-06T20:40:26.212Z,3.30
2023-10-06T20:42:57.462Z,3.30
2023-10-06T20:45:29.297Z,3.40
2023-10-06T20:47:56.836Z,3.40
2023-10-06T20:50:25.391Z,3.10
2023-10-06T20:52:53.748Z,3.20
2023-10-06T20:55:21.750Z,3.50
2023-10-06T20:57:49.116Z,3.60
2023-10-06T21:00:22.823Z,3.50
2023-10-06T21:02:50.806Z,3.40
2023-10-06T21:05:18.134Z,3.30
2023-10-06T21:07:45.536Z,3.20
2023-10-06T21:10:14.029Z,3.40
2023-10-06T21:12:43.802Z,3.40
2023-10-06T21:15:13.858Z,3.40
2023-10-06T21:17:44.229Z,3.70
2023-10-06T21:20:12.850Z,3.20
2023-10-06T21:22:40.349Z,3.40
2023-10-06T21:25:09.713Z,3.40
2023-10-06T21:27:40.457Z,3.40
2023-10-06T21:30:08.642Z,3.60
2023-10-06T21:32:36.832Z,3.40
2023-10-06T21:35:06.335Z,3.60
2023-10-06T21:37:34.022Z,3.50
2023-10-06T21:40:01.754Z,3.20
2023-10-06T21:42:28.998Z,3.40
2023-10-06T21:44:56.373Z,3.80
2023-10-06T21:47:23.730Z,3.60
2023-10-06T21:49:50.739Z,3.50
2023-10-06T21:52:17.630Z,3.10
2023-10-06T21:54:44.906Z,3.20
2023-10-06T21:57:14.633Z,3.40
2023-10-06T21:59:41.799Z,3.20
2023-10-06T22:02:08.850Z,3.50
2023-10-06T22:04:36.282Z,3.50
2023-10-06T22:07:03.676Z,3.00
2023-10-06T22:09:30.526Z,3.00
2023-10-06T22:11:59.184Z,3.10
2023-10-06T22:14:27.905Z,3.30
2023-10-06T22:16:55.872Z,3.30
2023-10-06T22:19:22.757Z,3.40
2023-10-06T22:21:51.293Z,3.40
2023-10-06T22:24:17.973Z,3.30
2023-10-06T22:26:45.588Z,3.20
2023-10-06T22:29:12.526Z,3.30
2023-10-06T22:31:39.695Z,3.30
2023-10-06T22:34:06.625Z,3.50
2023-10-06T22:36:33.375Z,3.10
2023-10-06T22:39:00.368Z,3.00
2023-10-06T22:41:28.118Z,3.30
2023-10-06T22:43:54.865Z,3.20
2023-10-06T22:46:21.763Z,3.20
2023-10-06T22:48:48.727Z,3.20
2023-10-06T22:51:18.630Z,3.30
2023-10-06T22:53:45.386Z,3.10
2023-10-06T22:56:12.853Z,3.10
2023-10-06T22:58:39.679Z,3.30
2023-10-06T23:01:07.076Z,3.40
2023-10-06T23:03:33.978Z,3.20
2023-10-06T23:06:02.432Z,3.10
2023-10-06T23:08:29.168Z,3.00
2023-10-06T23:10:56.206Z,3.20
2023-10-06T23:13:23.232Z,3.10
2023-10-06T23:15:50.166Z,3.30
2023-10-06T23:18:18.389Z,3.30
2023-10-06T23:20:47.190Z,3.00
2023-10-06T23:23:14.110Z,3.50
2023-10-06T23:25:47.019Z,3.00
2023-10-06T23:28:13.852Z,3.10
2023-10-06T23:30:40.609Z,3.30
2023-10-06T23:33:07.907Z,2.80
2023-10-06T23:35:34.841Z,3.20
2023-10-06T23:38:06.960Z,3.00
2023-10-06T23:40:38.851Z,2.90
2023-10-06T23:43:09.128Z,2.70
2023-10-06T23:45:38.723Z,3.10
2023-10-06T23:48:12.845Z,3.40
2023-10-06T23:50:52.946Z,3.00
2023-10-06T23:53:29.339Z,2.90
2023-10-06T23:56:00.477Z,3.30
2023-10-06T23:58:31.155Z,3.20
